createdAt,value
2022-10-03T00:01:35.571Z,97.71
2022-10-03T00:04:19.399Z,97.01
2022-10-03T00:06:53.790Z,96.00
2022-10-03T00:09:39.376Z,95.87
2022-10-03T00:12:16.023Z,95.46
2022-10-03T00:14:53.125Z,94.56
2022-10-03T00:17:23.206Z,94.83
2022-10-03T00:20:00.551Z,94.63
2022-10-03T00:22:38.689Z,93.88
2022-10-03T00:25:27.747Z,94.77
2022-10-03T00:28:10.657Z,94.08
2022-10-03T00:30:58.203Z,94.34
2022-10-03T00:33:31.253Z,95.24
2022-10-03T00:36:05.986Z,94.32
2022-10-03T00:39:00.375Z,94.63
2022-10-03T00:42:04.974Z,95.45
2022-10-03T00:45:32.578Z,95.39
2022-10-03T00:48:48.771Z,95.16
2022-10-03T00:51:42.065Z,95.97
2022-10-03T00:54:34.719Z,94.20
2022-10-03T00:57:24.999Z,95.43
2022-10-03T01:00:16.370Z,95.48
2022-10-03T01:02:56.536Z,96.08
2022-10-03T01:05:36.580Z,95.39
2022-10-03T01:08:31.147Z,96.31
2022-10-03T01:11:05.795Z,96.21
2022-10-03T01:13:44.546Z,96.91
2022-10-03T01:16:20.288Z,96.18
2022-10-03T01:19:02.176Z,96.36
2022-10-03T01:21:40.782Z,96.27
2022-10-03T01:24:53.110Z,95.71
2022-10-03T01:27:26.683Z,96.92
2022-10-03T01:30:15.908Z,95.15
2022-10-03T01:32:47.064Z,95.40
2022-10-03T01:35:25.947Z,95.44
2022-10-03T01:38:05.147Z,94.84
2022-10-03T01:40:35.831Z,94.13
2022-10-03T01:43:11.982Z,95.00
2022-10-03T01:46:01.311Z,93.87
2022-10-03T01:48:37.062Z,93.87
2022-10-03T01:51:08.801Z,92.68
2022-10-03T01:53:49.970Z,92.51
2022-10-03T01:56:22.682Z,93.41
2022-10-03T01:58:58.851Z,93.14
2022-10-03T02:01:31.719Z,92.79
2022-10-03T02:04:06.875Z,93.27
2022-10-03T02:06:43.622Z,93.54
2022-10-03T02:09:19.603Z,92.74
2022-10-03T02:12:05.639Z,92.57
2022-10-03T02:14:40.055Z,93.66
2022-10-03T02:17:10.902Z,93.36
2022-10-03T02:19:47.290Z,92.24
2022-10-03T02:22:17.147Z,92.57
2022-10-03T02:24:52.739Z,92.11
2022-10-03T02:28:00.972Z,93.19
2022-10-03T02:30:33.480Z,92.40
2022-10-03T02:33:38.375Z,92.26
2022-10-03T02:36:54.638Z,92.01
2022-10-03T02:40:07.132Z,92.72
2022-10-03T02:43:26.347Z,92.38
2022-10-03T02:46:24.594Z,92.54
2022-10-03T02:49:41.451Z,91.50
2022-10-03T02:52:49.383Z,92.10
2022-10-03T02:55:58.144Z,90.40
2022-10-03T02:59:12.231Z,91.38
2022-10-03T03:02:10.757Z,92.16
2022-10-03T03:05:22.910Z,91.47
2022-10-03T03:08:38.207Z,92.08
2022-10-03T03:11:38.622Z,91.17
2022-10-03T03:14:51.955Z,91.11
2022-10-03T03:17:32.160Z,91.12
2022-10-03T03:20:17.934Z,91.43
2022-10-03T03:23:17.271Z,90.78
2022-10-03T03:25:58.542Z,90.85
2022-10-03T03:28:37.598Z,91.50
2022-10-03T03:31:12.497Z,91.40
2022-10-03T03:33:52.927Z,91.18
2022-10-03T03:36:27.605Z,91.96
2022-10-03T03:39:07.397Z,90.79
2022-10-03T03:41:50.507Z,91.68
2022-10-03T03:44:48.554Z,91.86
2022-10-03T03:47:46.430Z,90.84
2022-10-03T03:50:29.267Z,91.63
2022-10-03T03:53:16.057Z,91.68
2022-10-03T03:56:04.152Z,92.39
2022-10-03T03:58:39.008Z,91.19
2022-10-03T04:01:25.499Z,90.34
2022-10-03T04:04:02.632Z,92.21
2022-10-03T04:06:56.334Z,91.34
2022-10-03T04:09:54.333Z,91.15
2022-10-03T04:12:36.443Z,91.80
2022-10-03T04:15:18.011Z,91.80
2022-10-03T04:18:19.115Z,91.50
2022-10-03T04:21:18.145Z,91.21
2022-10-03T04:24:24.540Z,91.34
2022-10-03T04:27:05.674Z,90.73
2022-10-03T04:29:56.889Z,90.31
2022-10-03T04:32:45.400Z,89.73
2022-10-03T04:35:30.123Z,90.66
2022-10-03T04:38:06.447Z,89.97
2022-10-03T04:40:47.231Z,89.91
2022-10-03T04:43:19.928Z,89.74
2022-10-03T04:46:10.574Z,90.23
2022-10-03T04:48:43.059Z,91.00
2022-10-03T04:51:19.915Z,89.89
2022-10-03T04:53:53.947Z,90.67
2022-10-03T04:56:41.616Z,91.10
2022-10-03T04:59:35.563Z,90.56
2022-10-03T05:02:12.556Z,90.63
2022-10-03T05:04:45.479Z,90.38
2022-10-03T05:07:17.896Z,90.55
2022-10-03T05:09:51.430Z,91.09
2022-10-03T05:12:28.867Z,89.53
2022-10-03T05:15:21.563Z,89.74
2022-10-03T05:18:02.148Z,89.78
2022-10-03T05:20:39.914Z,89.08
2022-10-03T05:23:20.651Z,89.82
2022-10-03T05:26:10.825Z,90.29
2022-10-03T05:28:51.473Z,89.57
2022-10-03T05:31:33.907Z,89.53
2022-10-03T05:34:10.850Z,89.47
2022-10-03T05:36:57.615Z,89.47
2022-10-03T05:39:34.835Z,90.52
2022-10-03T05:42:23.555Z,89.54
2022-10-03T05:45:00.986Z,88.27
2022-10-03T05:47:46.101Z,89.30
2022-10-03T05:50:43.357Z,87.63
2022-10-03T05:53:27.825Z,88.28
2022-10-03T05:56:07.015Z,88.24
2022-10-03T05:58:58.743Z,88.00
2022-10-03T06:02:26.505Z,87.44
2022-10-03T06:05:14.346Z,86.51
2022-10-03T06:07:59.276Z,87.79
2022-10-03T06:10:51.094Z,88.72
2022-10-03T06:13:22.909Z,87.40
2022-10-03T06:16:03.385Z,87.29
2022-10-03T06:19:07.363Z,86.64
2022-10-03T06:22:31.246Z,86.74
2022-10-03T06:26:00.568Z,87.48
2022-10-03T06:29:05.541Z,86.43
2022-10-03T06:32:02.831Z,85.79
2022-10-03T06:35:11.627Z,86.60
2022-10-03T06:38:35.094Z,86.33
2022-10-03T06:41:42.211Z,85.69
2022-10-03T06:44:37.753Z,85.98
2022-10-03T06:47:20.334Z,86.14
2022-10-03T06:50:37.930Z,84.79
2022-10-03T06:53:39.322Z,85.19
2022-10-03T06:56:38.325Z,85.16
2022-10-03T06:59:40.258Z,84.36
2022-10-03T07:02:49.026Z,84.38
2022-10-03T07:05:55.132Z,83.30
2022-10-03T07:09:16.121Z,83.11
2022-10-03T07:12:34.739Z,83.03
2022-10-03T07:16:02.879Z,83.03
2022-10-03T07:19:22.026Z,83.02
2022-10-03T07:22:19.179Z,82.24
2022-10-03T07:25:27.396Z,80.55
2022-10-03T07:28:12.662Z,81.88
2022-10-03T07:31:00.525Z,81.49
2022-10-03T07:34:23.515Z,82.03
2022-10-03T07:37:32.350Z,79.82
2022-10-03T07:40:26.459Z,80.25
2022-10-03T07:43:31.271Z,79.67
2022-10-03T07:46:52.611Z,79.55
2022-10-03T07:49:47.260Z,79.75
2022-10-03T07:52:55.063Z,79.83
2022-10-03T07:55:54.950Z,80.31
2022-10-03T07:58:46.218Z,79.00
2022-10-03T08:01:36.788Z,78.89
2022-10-03T08:04:49.270Z,78.92
2022-10-03T08:07:51.263Z,79.01
2022-10-03T08:10:51.440Z,78.27
2022-10-03T08:13:33.879Z,78.34
2022-10-03T08:16:18.347Z,77.21
2022-10-03T08:19:22.041Z,77.40
2022-10-03T08:22:02.079Z,78.14
2022-10-03T08:25:00.598Z,76.81
2022-10-03T08:28:02.657Z,76.51
2022-10-03T08:30:30.714Z,76.18
2022-10-03T08:33:43.576Z,75.76
2022-10-03T08:37:02.355Z,75.59
2022-10-03T08:39:54.482Z,75.89
2022-10-03T08:43:11.373Z,74.94
2022-10-03T08:46:07.135Z,75.23
2022-10-03T08:49:40.408Z,75.34
2022-10-03T08:52:21.461Z,73.98
2022-10-03T08:55:28.857Z,75.14
2022-10-03T08:58:19.331Z,75.64
2022-10-03T09:01:09.204Z,75.62
2022-10-03T09:04:46.893Z,74.19
2022-10-03T09:07:43.535Z,74.10
2022-10-03T09:10:54.485Z,72.36
2022-10-03T09:13:55.400Z,73.33
2022-10-03T09:16:55.154Z,72.49
2022-10-03T09:20:17.538Z,73.03
2022-10-03T09:23:04.326Z,71.35
2022-10-03T09:25:50.894Z,71.70
2022-10-03T09:28:59.401Z,71.22
2022-10-03T09:32:05.519Z,69.63
2022-10-03T09:35:24.112Z,69.43
2022-10-03T09:38:44.010Z,69.47
2022-10-03T09:41:53.439Z,69.19
2022-10-03T09:44:52.182Z,67.22
2022-10-03T09:48:11.272Z,67.88
2022-10-03T09:51:13.376Z,67.46
2022-10-03T09:54:31.629Z,68.88
2022-10-03T09:57:22.998Z,69.27
2022-10-03T10:00:27.761Z,69.59
2022-10-03T10:03:45.593Z,70.07
2022-10-03T10:06:43.983Z,69.83
2022-10-03T10:10:01.325Z,67.99
2022-10-03T10:13:14.925Z,68.69
2022-10-03T10:16:21.283Z,69.14
2022-10-03T10:19:29.769Z,69.45
2022-10-03T10:22:30.625Z,70.26
2022-10-03T10:25:24.953Z,68.55
2022-10-03T10:28:38.154Z,67.95
2022-10-03T10:31:58.581Z,68.02
2022-10-03T10:35:06.592Z,68.33
2022-10-03T10:38:15.863Z,65.22
2022-10-03T10:41:27.524Z,65.15
2022-10-03T10:44:53.985Z,63.86
2022-10-03T10:48:22.738Z,66.95
2022-10-03T10:51:43.808Z,66.04
2022-10-03T10:55:03.743Z,66.06
2022-10-03T10:59:02.414Z,64.29
2022-10-03T11:02:13.967Z,67.27
2022-10-03T11:05:26.206Z,66.09
2022-10-03T11:08:41.170Z,66.65
2022-10-03T11:12:08.423Z,65.24
2022-10-03T11:15:23.154Z,65.98
2022-10-03T11:18:47.015Z,65.43
2022-10-03T11:22:08.973Z,65.84
2022-10-03T11:25:14.730Z,67.41
2022-10-03T11:28:34.928Z,68.92
2022-10-03T11:31:51.705Z,70.46
2022-10-03T11:35:01.541Z,70.60
2022-10-03T11:37:45.770Z,70.48
2022-10-03T11:40:34.231Z,70.71
2022-10-03T11:43:19.806Z,70.48
2022-10-03T11:45:51.544Z,70.28
2022-10-03T11:48:35.739Z,69.75
2022-10-03T11:51:03.996Z,68.88
2022-10-03T11:53:43.299Z,69.89
2022-10-03T11:56:32.966Z,71.04
2022-10-03T11:59:15.082Z,68.98
2022-10-03T12:02:01.752Z,69.41
2022-10-03T12:04:33.117Z,69.05
2022-10-03T12:07:19.916Z,69.15
2022-10-03T12:09:58.784Z,68.91
2022-10-03T12:12:35.380Z,69.52
2022-10-03T12:15:06.983Z,70.04
2022-10-03T12:17:34.883Z,69.08
2022-10-03T12:20:06.806Z,69.14
2022-10-03T12:22:49.959Z,67.93
2022-10-03T12:25:23.852Z,67.48
2022-10-03T12:28:00.423Z,67.40
2022-10-03T12:30:24.695Z,68.37
2022-10-03T12:33:08.144Z,66.73
2022-10-03T12:35:44.076Z,66.77
2022-10-03T12:38:29.607Z,68.15
2022-10-03T12:41:05.527Z,67.67
2022-10-03T12:43:47.275Z,67.39
2022-10-03T12:46:18.036Z,66.28
2022-10-03T12:48:48.676Z,66.74
2022-10-03T12:51:24.090Z,67.31
2022-10-03T12:54:08.641Z,66.70
2022-10-03T12:56:44.142Z,67.14
2022-10-03T12:59:34.063Z,65.27
2022-10-03T13:02:24.555Z,66.53
2022-10-03T13:05:11.824Z,66.36
2022-10-03T13:07:46.988Z,64.50
2022-10-03T13:10:25.664Z,64.83
2022-10-03T13:12:54.896Z,64.71
2022-10-03T13:15:50.105Z,64.45
2022-10-03T13:18:37.202Z,66.10
2022-10-03T13:21:26.782Z,65.11
2022-10-03T13:23:57.232Z,64.32
2022-10-03T13:26:27.579Z,63.68
2022-10-03T13:29:14.591Z,64.91
2022-10-03T13:31:55.311Z,65.15
2022-10-03T13:34:23.336Z,64.54
2022-10-03T13:36:55.585Z,63.98
2022-10-03T13:39:25.987Z,65.37
2022-10-03T13:42:11.027Z,64.71
2022-10-03T13:44:40.483Z,64.14
2022-10-03T13:47:28.049Z,64.98
2022-10-03T13:49:56.844Z,64.03
2022-10-03T13:52:28.227Z,63.80
2022-10-03T13:55:19.405Z,63.70
2022-10-03T13:57:52.840Z,63.58
2022-10-03T14:00:18.548Z,64.39
2022-10-03T14:02:59.983Z,63.23
2022-10-03T14:05:51.948Z,64.81
2022-10-03T14:08:32.028Z,64.32
2022-10-03T14:11:26.107Z,63.44
2022-10-03T14:14:06.891Z,63.88
2022-10-03T14:16:33.531Z,64.39
2022-10-03T14:19:08.444Z,65.80
2022-10-03T14:22:08.498Z,64.99
2022-10-03T14:24:59.965Z,64.66
2022-10-03T14:27:43.634Z,66.46
2022-10-03T14:30:13.145Z,65.45
2022-10-03T14:32:49.089Z,65.13
2022-10-03T14:35:33.505Z,64.24
2022-10-03T14:38:09.919Z,65.08
2022-10-03T14:40:44.916Z,63.93
2022-10-03T14:43:32.843Z,63.32
2022-10-03T14:46:00.294Z,63.65
2022-10-03T14:48:29.673Z,63.76
2022-10-03T14:51:05.488Z,63.67
2022-10-03T14:53:31.478Z,64.13
2022-10-03T14:56:01.727Z,63.44
2022-10-03T14:58:32.421Z,64.91
2022-10-03T15:01:07.577Z,65.88
2022-10-03T15:03:38.254Z,64.74
2022-10-03T15:06:34.118Z,63.87
2022-10-03T15:09:02.414Z,64.79
2022-10-03T15:11:30.444Z,64.75
2022-10-03T15:13:58.458Z,64.31
2022-10-03T15:16:24.450Z,64.01
2022-10-03T15:18:56.408Z,64.25
2022-10-03T15:21:22.215Z,62.61
2022-10-03T15:23:48.935Z,64.67
2022-10-03T15:26:19.595Z,64.36
2022-10-03T15:28:48.687Z,64.18
2022-10-03T15:31:16.450Z,63.71
2022-10-03T15:33:41.059Z,65.36
2022-10-03T15:36:12.825Z,65.83
2022-10-03T15:38:41.107Z,65.39
2022-10-03T15:41:16.269Z,65.15
2022-10-03T15:43:49.744Z,65.51
2022-10-03T15:46:30.726Z,65.32
2022-10-03T15:48:55.384Z,65.71
2022-10-03T15:51:21.078Z,65.27
2022-10-03T15:53:51.604Z,65.31
2022-10-03T15:56:19.699Z,65.70
2022-10-03T15:58:49.852Z,66.68
2022-10-03T16:01:19.871Z,65.92
2022-10-03T16:03:47.790Z,67.20
2022-10-03T16:06:18.262Z,66.04
2022-10-03T16:08:57.635Z,66.57
2022-10-03T16:11:25.583Z,66.69
2022-10-03T16:14:02.105Z,67.39
2022-10-03T16:16:36.459Z,67.54
2022-10-03T16:19:22.353Z,68.98
2022-10-03T16:21:51.806Z,69.51
2022-10-03T16:24:31.580Z,70.19
2022-10-03T16:26:59.802Z,69.52
2022-10-03T16:29:29.095Z,70.07
2022-10-03T16:31:57.820Z,70.36
2022-10-03T16:34:25.437Z,70.44
2022-10-03T16:36:51.242Z,71.61
2022-10-03T16:39:23.047Z,71.43
2022-10-03T16:41:48.850Z,71.85
2022-10-03T16:44:27.082Z,71.56
2022-10-03T16:46:52.438Z,71.74
2022-10-03T16:49:53.186Z,71.85
2022-10-03T16:52:20.484Z,71.96
2022-10-03T16:54:47.174Z,72.02
2022-10-03T16:57:16.523Z,71.51
2022-10-03T16:59:44.027Z,71.58
2022-10-03T17:02:13.170Z,72.34
2022-10-03T17:04:40.347Z,71.40
2022-10-03T17:07:08.684Z,71.88
2022-10-03T17:09:42.247Z,72.19
2022-10-03T17:12:15.059Z,71.39
2022-10-03T17:14:42.510Z,71.45
2022-10-03T17:17:14.778Z,71.53
2022-10-03T17:19:42.974Z,72.12
2022-10-03T17:22:16.162Z,72.04
2022-10-03T17:24:47.692Z,71.08
2022-10-03T17:27:24.530Z,71.43
2022-10-03T17:29:53.681Z,71.71
2022-10-03T17:32:25.490Z,72.98
2022-10-03T17:34:58.631Z,73.64
2022-10-03T17:38:24.531Z,72.91
2022-10-03T17:41:03.497Z,74.36
2022-10-03T17:43:37.620Z,74.33
2022-10-03T17:46:10.123Z,73.82
2022-10-03T17:48:41.428Z,74.23
2022-10-03T17:51:31.493Z,75.14
2022-10-03T17:53:58.083Z,76.79
2022-10-03T17:56:24.218Z,77.09
2022-10-03T17:58:53.262Z,76.66
2022-10-03T18:01:20.167Z,77.84
2022-10-03T18:03:50.542Z,77.06
2022-10-03T18:06:40.194Z,78.41
2022-10-03T18:09:11.671Z,77.66
2022-10-03T18:11:39.573Z,77.91
2022-10-03T18:14:14.867Z,77.55
2022-10-03T18:16:46.123Z,77.14
2022-10-03T18:19:32.731Z,76.86
2022-10-03T18:22:03.053Z,77.09
2022-10-03T18:24:43.607Z,77.16
2022-10-03T18:28:07.734Z,77.47
2022-10-03T18:30:46.201Z,77.47
2022-10-03T18:33:14.720Z,78.59
2022-10-03T18:35:41.507Z,79.61
2022-10-03T18:38:15.239Z,78.79
2022-10-03T18:40:44.661Z,79.35
2022-10-03T18:43:08.257Z,79.54
2022-10-03T18:45:39.969Z,80.22
2022-10-03T18:48:12.839Z,79.27
2022-10-03T18:50:54.942Z,79.25
2022-10-03T18:53:27.885Z,80.43
2022-10-03T18:56:00.471Z,81.79
2022-10-03T18:58:27.299Z,80.62
2022-10-03T19:01:01.287Z,82.10
2022-10-03T19:03:32.531Z,83.37
2022-10-03T19:06:03.502Z,84.35
2022-10-03T19:08:31.279Z,82.61
2022-10-03T19:10:56.683Z,82.25
2022-10-03T19:13:31.274Z,83.35
2022-10-03T19:16:20.482Z,85.09
2022-10-03T19:18:50.799Z,84.20
2022-10-03T19:21:20.891Z,82.72
2022-10-03T19:23:48.701Z,84.15
2022-10-03T19:26:23.316Z,84.07
2022-10-03T19:28:50.226Z,85.71
2022-10-03T19:31:21.540Z,85.24
2022-10-03T19:33:50.212Z,84.40
2022-10-03T19:36:18.335Z,83.46
2022-10-03T19:38:46.111Z,83.61
2022-10-03T19:41:28.629Z,84.46
2022-10-03T19:43:53.199Z,84.70
2022-10-03T19:46:56.526Z,86.95
2022-10-03T19:49:40.294Z,86.34
2022-10-03T19:52:19.902Z,87.41
2022-10-03T19:54:53.046Z,84.79
2022-10-03T19:57:20.795Z,85.35
2022-10-03T19:59:48.231Z,86.16
2022-10-03T20:02:13.854Z,87.15
2022-10-03T20:04:38.247Z,85.78
2022-10-03T20:07:03.682Z,88.02
2022-10-03T20:09:29.214Z,88.68
2022-10-03T20:11:58.219Z,87.42
2022-10-03T20:14:26.960Z,86.50
2022-10-03T20:16:52.054Z,85.88
2022-10-03T20:19:23.658Z,87.63
2022-10-03T20:21:54.321Z,88.47
2022-10-03T20:24:23.956Z,88.01
2022-10-03T20:26:58.486Z,87.29
2022-10-03T20:29:30.898Z,87.84
2022-10-03T20:32:01.328Z,88.21
2022-10-03T20:34:26.677Z,89.36
2022-10-03T20:36:57.536Z,89.80
2022-10-03T20:39:25.851Z,88.87
2022-10-03T20:42:00.829Z,89.08
2022-10-03T20:44:55.205Z,89.61
2022-10-03T20:47:44.363Z,88.79
2022-10-03T20:50:20.247Z,89.88
2022-10-03T20:52:44.028Z,88.85
2022-10-03T20:55:19.602Z,89.50
2022-10-03T20:57:52.798Z,88.64
2022-10-03T21:00:22.803Z,88.58
2022-10-03T21:02:51.971Z,90.60
2022-10-03T21:05:24.363Z,88.55
2022-10-03T21:07:52.932Z,87.91
2022-10-03T21:10:27.351Z,88.74
2022-10-03T21:12:54.328Z,88.22
2022-10-03T21:15:31.207Z,88.89
2022-10-03T21:17:56.806Z,88.27
2022-10-03T21:20:28.385Z,88.18
2022-10-03T21:22:54.809Z,89.36
2022-10-03T21:25:23.481Z,88.14
2022-10-03T21:27:51.795Z,89.27
2022-10-03T21:30:19.632Z,88.72
2022-10-03T21:33:00.204Z,89.39
2022-10-03T21:35:29.190Z,90.74
2022-10-03T21:38:07.286Z,89.98
2022-10-03T21:41:08.089Z,90.08
2022-10-03T21:43:46.114Z,89.39
2022-10-03T21:46:19.194Z,89.25
2022-10-03T21:49:05.599Z,88.64
2022-10-03T21:51:39.327Z,88.34
2022-10-03T21:54:28.941Z,88.22
2022-10-03T21:57:07.800Z,87.60
2022-10-03T22:00:03.068Z,89.07
2022-10-03T22:02:39.401Z,89.30
2022-10-03T22:05:16.336Z,89.69
2022-10-03T22:07:43.275Z,89.37
2022-10-03T22:10:21.237Z,87.66
2022-10-03T22:12:50.039Z,89.74
2022-10-03T22:15:24.255Z,89.91
2022-10-03T22:17:54.669Z,89.46
2022-10-03T22:20:22.852Z,89.03
2022-10-03T22:23:20.806Z,89.83
2022-10-03T22:25:56.959Z,90.39
2022-10-03T22:28:32.936Z,90.75
2022-10-03T22:31:09.584Z,90.01
2022-10-03T22:33:46.243Z,89.69
2022-10-03T22:36:12.915Z,89.62
2022-10-03T22:38:39.236Z,89.32
2022-10-03T22:41:07.365Z,89.29
2022-10-03T22:43:31.814Z,88.66
2022-10-03T22:45:58.778Z,89.04
2022-10-03T22:48:28.270Z,89.25
2022-10-03T22:50:54.301Z,89.20
2022-10-03T22:53:23.378Z,90.00
2022-10-03T22:55:52.295Z,89.91
2022-10-03T22:58:16.174Z,89.27
2022-10-03T23:00:42.942Z,89.37
2022-10-03T23:03:10.488Z,89.54
2022-10-03T23:06:05.864Z,89.76
2022-10-03T23:08:45.802Z,88.71
2022-10-03T23:11:21.795Z,89.87
2022-10-03T23:13:46.499Z,90.15
2022-10-03T23:16:29.670Z,89.80
2022-10-03T23:19:19.994Z,90.02
2022-10-03T23:21:48.227Z,88.39
2022-10-03T23:24:18.159Z,88.97
2022-10-03T23:27:27.946Z,89.75
2022-10-03T23:30:51.880Z,89.94
2022-10-03T23:33:53.696Z,89.95
2022-10-03T23:36:21.614Z,89.59
2022-10-03T23:39:01.943Z,88.37
2022-10-03T23:41:44.989Z,89.17
2022-10-03T23:44:49.279Z,89.08
2022-10-03T23:47:16.112Z,89.60
2022-10-03T23:49:43.147Z,90.64
2022-10-03T23:52:08.226Z,89.93
2022-10-03T23:54:31.745Z,89.22
2022-10-03T23:57:00.160Z,88.27
2022-10-03T23:59:26.575Z,88.30
